Chamberlain Brothers Ranch, WY

06:37 PM MDT die 24o October, anno 2014 (GMT -0600)
Converse County | Change Station
CLOSE
Current Station
Airport
Location: Douglas,
Elevation: 4928 ft
Nearby Weather Stations

Elev 4928 ft 42.80 °N, 105.38 °W | Updated 44 minutes ago

Serena
Serena
71 °F
Feels Like 71 °F
N
15
Ventus Variabilis Ventus from Zephyrus

Hodie
High -- | Low -- °F
--% Chance of Precip.
Yesterday
High -- | Low -- °F
Precip. -- in
7:26 AM 6:05 PM
New, 1% visible
Pressio 29.98 in
Visibilitas 10.0 milia passuum
Clouds Serena
Frigus in quo Ros apparet 19 °F
Umor 14%
Rainfall 0.00 in
Snow Depth Not available.
UV 0 out of 12
Pollen 2.70 out of 12
Air Quality Not available.
Flu Activity Sporadic
METAR KDGW 242353Z AUTO 26013KT 10SM CLR 22/M07 A3008 RMK AO2 SLP150 T02171072 10261 20217 51004

More Conditions Fewer Conditions

Pressio 29.98 in
Visibilitas 10.0 milia passuum
Clouds Serena
Frigus in quo Ros apparet 19 °F
Umor 14%
Rainfall 0.00 in
Snow Depth Not available.
UV 0 out of 12
Pollen 2.70 out of 12
Air Quality Not available.
Flu Activity Sporadic
METAR KDGW 242353Z AUTO 26013KT 10SM CLR 22/M07 A3008 RMK AO2 SLP150 T02171072 10261 20217 51004

More Conditions Fewer Conditions

10-Day Weather Forecast

Almanac

Astronomy

Oct. 24, 2014 Rise Set
Actual Time 7:26 AM MDT 6:05 PM MDT
Civil Twilight 6:57 AM MDT 6:34 PM MDT
Nautical Twilight 6:24 AM MDT 7:07 PM MDT
Astronomical Twilight 5:51 AM MDT 7:40 PM MDT
Moon 8:09 AM MDT (10/24) 6:46 PM MDT (10/24)
Length Of Visible Light 11h 37m
Length of Day
10h 39m
Tomorrow will be 2m 42s shorter.
New, 1% of the Moon is Illuminated
Hodie
New
Oct 30
First Quarter
Nov 6
Full
Nov 14
Last Quarter
Nov 22
New

Today's Extremes

State Highs State Lows

Community

WunderPhotos

Upload Photos

1,764,727 photos uploaded!

WunderBlogs® & News

Nearby

Snow Depth

Station Depth Elevation
Laprele Creek 0 in 8375 ft
Reno Hill 0 in 8500 ft
Windy Peak 0 in 7900 ft
Grave Springs 0 in 8550 ft
Sand Lake 3 in 10050 ft

Earthquake Activity

City Distance Mag. Time & Date
No recent earthquake activity has been reported nearby.
Minimum magnitude displayed is 2.5.

Coastal Water Temperatures

Locus Calor
No Stations Reporting

Nearby Weather Stations